Huvudsida
METAR-TAF:

METAR-TAF

Flygplatser :

Gran Canarias flygplats

Gran Canaria, Spanien

latitud: 27-56N, longitud: 015-23W, höjd: 23 m

Aktuellt väderrapport

Denna rapport gjordes för 26 minuter sedan, klockan 20:00 UTC
Vind 28 kt från nord i byarna ända upp till 38 kt
Temperatur 21°C
Fuktighet 69%
Tryck 1020 hPa
Sikt 10 km eller mer
Få moln på en höjd av 2500 ft
Brutna moln på en höjd av 3500 ft

METAR: GCLP 112000Z 01028G38KT 9999 FEW025 BKN035 21/15 Q1020 NOSIG

Tid: 20:26 (20:26 UTC)

Väderprognos

Denna rapport gjordes för 6 timmar och 26 minuter sedan, klockan 14:00 UTC
Prognos gäller från 11 kl. 15 UTC till 12 kl. 15 UTC
Vind 30 kt från nord
Sikt 10 km eller mer
Brutna moln på en höjd av 3000 ft
Temporärt
från 11 kl. 15 UTC till 12 kl. 06 UTC
Vind 30 kt från nord i byarna ända upp till 40 kt

TAF: GCLP 111400Z 1115/1215 01030KT 9999 BKN030 TX25/1214Z TN20/1206Z TEMPO 1115/1206 01030G40KT

Aktuella väderrapporter och prognoser från 4000 flygplatser (METAR- och TAF-rapporter).

De tillgängliga stationerna syns som gula och röda prickar på kartan.

För musen över prickarna för att se namnen på stationerna.

Klicka sedan för att få väderrapporter och prognoser.

För att ändra kartan: Klicka på de gröna knapparna med ett svart kors på för att zooma in; den gröna knappen med ett streck på för att zooma ut; eller på de gröna pilarna för angränsande kartor.


METAR-TAF: